Time;durP1;ratioP1;P1;durP2;ratioP2;P2;SDS_P1;SDS_P2;PMS_P1;PMS_P2;Temp;Humidity;BMP_temperature;BMP_pressure;BME280_temperature;BME280_humidity;BME280_pressure;Samples;Min_cycle;Max_cycle;Signal;HPM_P1;HPM_P2
2022/10/01 00:00:03;;;;;;;5.90;5.50;;;;;;;10.99;100.00;100263.31;6066602;23;20026;-68
2022/10/01 00:02:29;;;;;;;5.43;5.13;;;;;;;11.01;100.00;100268.50;6135031;23;20074;-68
2022/10/01 00:04:56;;;;;;;5.88;5.47;;;;;;;10.52;100.00;100190.91;6103289;23;20009;-68
2022/10/01 00:07:23;;;;;;;5.30;4.90;;;;;;;10.35;100.00;100169.16;6108745;23;20017;-68
2022/10/01 00:09:49;;;;;;;5.22;4.93;;;;;;;10.61;100.00;100221.03;6098613;23;20036;-68
2022/10/01 00:12:15;;;;;;;5.82;5.53;;;;;;;11.00;100.00;100274.66;6128932;23;20505;-68
2022/10/01 00:14:43;;;;;;;5.57;5.20;;;;;;;10.98;100.00;100282.63;6105462;23;20029;-68
2022/10/01 00:17:09;;;;;;;5.50;5.20;;;;;;;10.85;100.00;100263.31;6089376;23;20010;-68
2022/10/01 00:19:35;;;;;;;6.03;5.50;;;;;;;10.89;100.00;100270.91;6104918;23;20029;-68
2022/10/01 00:22:02;;;;;;;6.15;5.65;;;;;;;10.87;100.00;100269.31;6118940;23;20047;-68
2022/10/01 00:24:28;;;;;;;5.63;5.32;;;;;;;10.84;100.00;100264.25;6089194;23;20087;-68
2022/10/01 00:26:55;;;;;;;6.05;5.53;;;;;;;10.37;100.00;100184.81;6121090;23;20469;-68
2022/10/01 00:29:21;;;;;;;5.70;5.40;;;;;;;10.61;100.00;100236.78;6097387;23;20628;-67
2022/10/01 00:31:47;;;;;;;5.75;5.38;;;;;;;10.81;100.00;100244.28;6121515;23;20017;-68
2022/10/01 00:34:14;;;;;;;5.82;5.43;;;;;;;10.56;100.00;100200.28;6102740;23;20731;-68
2022/10/01 00:36:41;;;;;;;5.88;5.45;;;;;;;10.46;100.00;100175.53;6129224;23;20033;-68
2022/10/01 00:39:09;;;;;;;5.10;4.80;;;;;;;10.76;100.00;100220.06;6097806;23;20029;-68
2022/10/01 00:41:35;;;;;;;6.03;5.55;;;;;;;10.76;100.00;100213.06;6133469;23;20017;-69
2022/10/01 00:44:25;;;;;;;5.15;4.85;;;;;;;10.74;100.00;100204.44;6073993;23;20028;-67
2022/10/01 00:46:53;;;;;;;5.57;5.28;;;;;;;10.74;100.00;100204.44;6127371;23;20009;-68
2022/10/01 00:49:24;;;;;;;7.57;5.25;;;;;;;10.51;100.00;100147.25;6092832;23;20033;-67
2022/10/01 00:51:57;;;;;;;7.93;5.63;;;;;;;10.70;100.00;100167.97;6101661;23;20062;-67
2022/10/01 00:55:08;;;;;;;5.03;4.70;;;;;;;10.70;100.00;100160.94;6092088;23;20018;-68
2022/10/01 00:57:34;;;;;;;5.63;5.13;;;;;;;10.70;100.00;100154.84;6106877;23;20013;-68
2022/10/01 01:00:06;;;;;;;4.90;4.60;;;;;;;10.60;100.00;100144.06;6101035;23;20030;-68
2022/10/01 01:02:32;;;;;;;5.38;5.07;;;;;;;10.09;100.00;100054.47;6133064;23;20009;-68
2022/10/01 01:04:59;;;;;;;4.50;4.30;;;;;;;10.31;100.00;100103.88;6107965;23;20022;-68
2022/10/01 01:07:28;;;;;;;6.22;5.32;;;;;;;10.51;100.00;100142.00;6137056;23;20062;-68
2022/10/01 01:09:55;;;;;;;5.18;4.88;;;;;;;10.50;100.00;100137.69;6103660;23;20082;-68
2022/10/01 01:13:00;;;;;;;5.47;5.07;;;;;;;10.47;100.00;100128.22;6102831;23;20013;-68
2022/10/01 01:15:54;;;;;;;5.38;5.07;;;;;;;10.41;100.00;100127.78;6122119;23;20029;-68
2022/10/01 01:18:49;;;;;;;5.45;5.15;;;;;;;10.13;100.00;100077.78;6094754;23;20541;-68
2022/10/01 01:21:34;;;;;;;7.05;6.63;;;;;;;10.43;100.00;100118.03;6104173;23;20457;-69
2022/10/01 01:24:09;;;;;;;4.85;4.65;;;;;;;10.41;100.00;100117.28;6097109;23;20988;-68
2022/10/01 01:26:49;;;;;;;5.55;5.15;;;;;;;10.39;100.00;100112.13;6126248;23;20014;-68
2022/10/01 01:29:51;;;;;;;5.28;4.90;;;;;;;10.36;100.00;100113.16;6097874;23;20091;-68
2022/10/01 01:32:26;;;;;;;5.22;4.93;;;;;;;10.36;100.00;100100.03;6083193;23;20009;-68
2022/10/01 01:34:55;;;;;;;4.53;4.32;;;;;;;10.18;100.00;100057.41;6101718;23;20033;-68
2022/10/01 01:37:26;;;;;;;5.28;4.90;;;;;;;9.28;100.00;99898.63;6136731;23;20571;-68
2022/10/01 01:39:55;;;;;;;5.30;5.00;;;;;;;10.30;100.00;100058.47;6096581;23;20017;-68
2022/10/01 01:42:35;;;;;;;5.03;4.65;;;;;;;10.34;100.00;100041.59;6129097;23;20017;-68
2022/10/01 01:45:08;;;;;;;4.95;4.70;;;;;;;10.34;100.00;100027.63;6093976;23;20202;-68
2022/10/01 01:47:35;;;;;;;;;;;;;;;10.30;100.00;100021.75;6137732;23;20035;-68
2022/10/01 01:50:03;;;;;;;5.13;4.82;;;;;;;10.05;100.00;99969.09;6105212;23;19921;-68
2022/10/01 01:52:31;;;;;;;4.95;4.65;;;;;;;9.70;100.00;99903.94;6118999;23;20563;-68
2022/10/01 01:54:58;;;;;;;5.07;4.78;;;;;;;10.26;100.00;99990.50;6109316;23;20091;-67
2022/10/01 01:57:25;;;;;;;5.15;4.85;;;;;;;8.64;100.00;99721.88;6130314;23;20244;-68
2022/10/01 01:59:53;;;;;;;5.43;5.13;;;;;;;10.31;100.00;99978.81;6104106;23;20044;-68
2022/10/01 02:02:28;;;;;;;5.63;5.15;;;;;;;9.51;100.00;99852.69;6128527;23;20014;-68
2022/10/01 02:05:00;;;;;;;5.38;5.07;;;;;;;10.03;100.00;99929.84;6104413;23;20029;-68
2022/10/01 02:07:36;;;;;;;4.85;4.55;;;;;;;10.23;100.00;99972.34;6135095;23;20009;-68
2022/10/01 02:10:17;;;;;;;5.03;4.72;;;;;;;10.25;100.00;99986.22;6100859;23;20705;-68
2022/10/01 02:13:21;;;;;;;5.60;5.30;;;;;;;10.23;100.00;99988.91;6107813;23;20025;-67
2022/10/01 02:16:03;;;;;;;5.53;5.13;;;;;;;10.31;100.00;99991.94;6082854;23;20188;-68
2022/10/01 02:18:46;;;;;;;4.57;4.38;;;;;;;8.71;100.00;99759.81;6092167;23;20009;-68
2022/10/01 02:21:27;;;;;;;5.28;4.90;;;;;;;10.27;100.00;99987.78;6126784;23;20075;-68
2022/10/01 02:23:58;;;;;;;4.88;4.68;;;;;;;10.24;100.00;99990.59;6093271;23;20480;-67
2022/10/01 02:26:27;;;;;;;5.30;5.00;;;;;;;10.22;100.00;100000.34;6123567;23;20584;-68
2022/10/01 02:28:57;;;;;;;6.03;5.03;;;;;;;10.20;100.00;99991.72;6095563;23;20022;-68
2022/10/01 02:31:26;;;;;;;6.07;5.68;;;;;;;9.86;100.00;99945.78;6128288;23;20078;-68
2022/10/01 02:33:55;;;;;;;4.93;4.63;;;;;;;10.23;100.00;100011.69;6109558;23;20093;-67
2022/10/01 02:36:24;;;;;;;5.30;5.00;;;;;;;9.91;100.00;99957.66;6127059;23;20014;-68
2022/10/01 02:38:54;;;;;;;17.13;16.13;;;;;;;10.25;100.00;100020.31;6036844;23;20246;-68
2022/10/01 02:41:32;;;;;;;4.85;4.65;;;;;;;10.23;100.00;100009.91;6115173;23;20036;-68
2022/10/01 02:44:22;;;;;;;5.28;4.80;;;;;;;10.18;100.00;99994.47;6096262;23;20097;-68
2022/10/01 02:47:11;;;;;;;5.25;4.95;;;;;;;9.74;100.00;99892.34;6129922;23;20010;-69
2022/10/01 02:49:40;;;;;;;5.38;5.07;;;;;;;9.90;100.00;99876.50;6097676;23;20076;-68
2022/10/01 02:52:25;;;;;;;5.20;4.90;;;;;;;9.70;100.00;99818.34;6123393;23;20073;-68
2022/10/01 02:55:02;;;;;;;4.80;4.60;;;;;;;10.19;100.00;99890.41;6099040;23;20021;-68
2022/10/01 02:57:29;;;;;;;5.53;5.22;;;;;;;10.16;100.00;99891.47;6124625;23;20131;-68
2022/10/01 02:59:58;;;;;;;4.70;4.50;;;;;;;10.18;100.00;99912.31;6091780;23;20521;-68
2022/10/01 03:02:27;;;;;;;4.47;4.28;;;;;;;10.16;100.00;99907.19;6129723;23;20016;-69
2022/10/01 03:04:56;;;;;;;5.45;5.07;;;;;;;10.18;100.00;99897.44;6104249;23;20020;-68
2022/10/01 03:07:26;;;;;;;4.65;4.45;;;;;;;10.21;100.00;99882.47;6131474;23;20013;-68
2022/10/01 03:09:53;;;;;;;4.85;4.65;;;;;;;10.21;100.00;99888.53;6095268;23;20375;-67
2022/10/01 03:12:20;;;;;;;4.80;4.60;;;;;;;10.19;100.00;99893.03;6100191;23;20025;-68
2022/10/01 03:14:46;;;;;;;4.80;4.60;;;;;;;10.18;100.00;99910.56;6137667;23;20033;-68
2022/10/01 03:17:14;;;;;;;11.23;4.40;;;;;;;10.16;100.00;99891.47;6131291;23;20020;-68
2022/10/01 03:19:41;;;;;;;4.80;4.50;;;;;;;9.79;100.00;99809.06;6155167;23;20078;-68
2022/10/01 03:22:10;;;;;;;5.40;5.03;;;;;;;9.98;100.00;99843.66;6121002;23;20026;-68
2022/10/01 03:24:37;;;;;;;4.45;4.25;;;;;;;10.21;100.00;99878.03;6142155;23;20009;-68
2022/10/01 03:27:03;;;;;;;4.45;4.20;;;;;;;9.81;100.00;99816.81;6120960;23;20013;-68
2022/10/01 03:29:29;;;;;;;4.85;4.55;;;;;;;10.17;100.00;99868.69;6153608;23;20009;-68
2022/10/01 03:31:56;;;;;;;4.47;4.28;;;;;;;10.16;100.00;99862.63;6132238;23;20320;-68
2022/10/01 03:34:22;;;;;;;4.68;4.47;;;;;;;9.57;100.00;99757.19;6158425;23;20013;-68
2022/10/01 03:36:51;;;;;;;5.07;4.78;;;;;;;10.21;100.00;99836.09;6122209;23;20010;-68
2022/10/01 03:39:17;;;;;;;5.88;5.32;;;;;;;9.57;100.00;99747.53;6129194;23;20035;-68
2022/10/01 03:41:44;;;;;;;4.50;4.30;;;;;;;10.19;100.00;99848.47;6119035;23;20013;-68
2022/10/01 03:44:10;;;;;;;4.57;4.30;;;;;;;10.18;100.00;99829.28;6147612;23;20516;-68
2022/10/01 03:46:36;;;;;;;4.30;4.10;;;;;;;10.17;100.00;99831.97;6127350;23;20067;-68
2022/10/01 03:49:03;;;;;;;4.30;4.10;;;;;;;10.03;100.00;99800.56;6149392;23;20079;-68
2022/10/01 03:51:30;;;;;;;4.68;4.38;;;;;;;10.23;100.00;99794.88;6119979;23;20013;-68
2022/10/01 03:53:57;;;;;;;4.30;4.10;;;;;;;10.21;100.00;99802.00;6146705;23;20017;-67
2022/10/01 03:56:24;;;;;;;5.07;4.65;;;;;;;10.22;100.00;99785.31;6120102;23;20022;-68
2022/10/01 03:58:50;;;;;;;4.25;4.05;;;;;;;10.21;100.00;99777.56;6148032;23;20009;-68
2022/10/01 04:01:17;;;;;;;4.28;4.07;;;;;;;10.21;100.00;99791.50;6120005;23;20571;-68
2022/10/01 04:03:43;;;;;;;4.50;4.30;;;;;;;10.19;100.00;99798.63;6131188;23;20481;-68
2022/10/01 04:06:10;;;;;;;4.50;4.30;;;;;;;10.23;100.00;99791.41;6151768;23;20013;-68
2022/10/01 04:08:37;;;;;;;4.47;4.18;;;;;;;10.24;100.00;99808.81;6124996;23;20036;-68
2022/10/01 04:11:05;;;;;;;4.50;4.30;;;;;;;9.88;100.00;99760.44;6120293;23;20033;-67
2022/10/01 04:13:33;;;;;;;4.18;3.97;;;;;;;10.12;100.00;99786.84;6156399;23;20017;-68
2022/10/01 04:16:00;;;;;;;4.80;4.60;;;;;;;9.62;100.00;99652.09;6130115;23;20479;-68
2022/10/01 04:18:27;;;;;;;4.18;3.97;;;;;;;9.81;100.00;99686.66;6148891;23;20513;-68
2022/10/01 04:20:53;;;;;;;4.60;4.40;;;;;;;10.30;100.00;99814.56;6120003;23;20025;-68
2022/10/01 04:23:22;;;;;;;4.07;3.88;;;;;;;10.27;100.00;99801.59;6148884;23;20012;-68
2022/10/01 04:25:48;;;;;;;4.60;4.40;;;;;;;10.25;100.00;99766.78;6117772;23;20029;-68
2022/10/01 04:28:15;;;;;;;4.45;4.25;;;;;;;10.31;100.00;99797.03;6150649;23;20028;-68
2022/10/01 04:30:43;;;;;;;4.15;3.95;;;;;;;10.30;100.00;99809.31;6119875;23;20087;-68
2022/10/01 04:33:15;;;;;;;4.20;4.00;;;;;;;10.31;100.00;99815.38;6167949;23;20024;-69
2022/10/01 04:35:42;;;;;;;4.32;4.13;;;;;;;10.33;100.00;99811.72;6128891;23;20433;-68
2022/10/01 04:38:13;;;;;;;4.10;3.90;;;;;;;10.34;100.00;99831.78;6155486;23;20024;-68
2022/10/01 04:40:40;;;;;;;4.20;4.00;;;;;;;10.39;100.00;99834.09;6126441;23;20017;-68
2022/10/01 04:43:09;;;;;;;4.20;4.00;;;;;;;9.80;100.00;99742.59;6128548;23;20024;-67
2022/10/01 04:45:36;;;;;;;4.20;4.00;;;;;;;10.34;100.00;99815.19;6128318;23;20021;-68
2022/10/01 04:48:04;;;;;;;4.10;3.90;;;;;;;10.12;100.00;99779.00;6137453;23;20036;-68
2022/10/01 04:50:31;;;;;;;4.20;4.00;;;;;;;9.79;100.00;99715.56;6156686;23;20086;-68
2022/10/01 04:52:57;;;;;;;4.20;4.00;;;;;;;10.42;100.00;99805.00;6122287;23;20079;-68
2022/10/01 04:55:23;;;;;;;4.07;3.88;;;;;;;10.43;100.00;99801.47;6154854;23;20010;-68
2022/10/01 04:57:50;;;;;;;4.15;3.95;;;;;;;10.49;100.00;99781.88;6122266;23;20020;-68
2022/10/01 05:00:20;;;;;;;4.20;4.00;;;;;;;10.47;100.00;99768.00;6151066;23;20480;-68
2022/10/01 05:02:48;;;;;;;4.30;4.10;;;;;;;10.29;100.00;99728.09;6121151;23;20490;-68
2022/10/01 05:05:16;;;;;;;4.10;3.90;;;;;;;10.43;100.00;99762.13;6163008;23;20073;-68
2022/10/01 05:07:43;;;;;;;4.30;4.10;;;;;;;10.37;100.00;99775.66;6110592;23;20040;-70
2022/10/01 05:10:16;;;;;;;4.30;4.10;;;;;;;10.23;100.00;99718.00;6167054;23;20021;-68
2022/10/01 05:12:42;;;;;;;4.10;3.90;;;;;;;10.69;100.00;99791.88;6121855;23;20053;-68
2022/10/01 05:15:09;;;;;;;4.28;4.07;;;;;;;10.72;100.00;99791.66;6163660;23;20032;-68
2022/10/01 05:17:36;;;;;;;4.03;3.83;;;;;;;10.71;100.00;99792.59;6123982;23;20041;-68
2022/10/01 05:20:05;;;;;;;4.28;4.07;;;;;;;10.72;100.00;99789.03;6153724;23;20017;-69
2022/10/01 05:22:32;;;;;;;4.05;3.88;;;;;;;10.72;100.00;99778.56;6124399;23;20481;-68
2022/10/01 05:24:59;;;;;;;4.10;3.90;;;;;;;10.75;100.00;99780.13;6151759;23;20702;-68
2022/10/01 05:27:26;;;;;;;4.20;4.00;;;;;;;10.46;100.00;99727.81;6120272;23;20021;-69
2022/10/01 05:29:52;;;;;;;4.30;4.10;;;;;;;10.52;100.00;99748.41;6152644;23;20012;-68
2022/10/01 05:32:19;;;;;;;4.20;4.00;;;;;;;10.78;100.00;99783.38;6133251;23;20022;-68
2022/10/01 05:34:45;;;;;;;4.00;3.80;;;;;;;10.80;100.00;99782.41;6165739;23;20028;-69
2022/10/01 05:37:18;;;;;;;3.97;3.80;;;;;;;10.81;100.00;99789.38;6121615;23;20743;-68
2022/10/01 05:39:45;;;;;;;4.10;3.90;;;;;;;10.85;100.00;99788.22;6154822;23;20032;-68
2022/10/01 05:42:11;;;;;;;4.45;4.25;;;;;;;10.41;100.00;99715.97;6121398;23;20076;-68
2022/10/01 05:44:38;;;;;;;4.00;3.80;;;;;;;10.83;100.00;99780.44;6157155;23;20025;-68
2022/10/01 05:47:06;;;;;;;4.05;3.85;;;;;;;10.87;100.00;99788.94;6133187;23;20425;-68
2022/10/01 05:49:32;;;;;;;4.35;4.15;;;;;;;10.85;100.00;99791.66;6170284;23;20514;-68
2022/10/01 05:51:59;;;;;;;4.10;3.90;;;;;;;10.45;100.00;99723.50;6121475;23;20011;-70
2022/10/01 05:54:28;;;;;;;4.28;4.07;;;;;;;10.87;100.00;99786.31;6137561;23;20020;-70
2022/10/01 05:56:55;;;;;;;4.40;4.20;;;;;;;10.88;100.00;99795.88;6131349;23;20398;-70
2022/10/01 05:59:23;;;;;;;4.18;3.97;;;;;;;10.90;100.00;99805.31;6121879;23;20075;-71
2022/10/01 06:01:56;;;;;;;4.28;4.07;;;;;;;10.44;100.00;99731.47;6159009;23;20099;-70
2022/10/01 06:04:23;;;;;;;4.20;4.00;;;;;;;10.68;100.00;99755.22;6130808;23;20010;-70
2022/10/01 06:06:49;;;;;;;4.10;3.90;;;;;;;10.78;100.00;99761.53;6152518;23;20508;-70
2022/10/01 06:09:16;;;;;;;4.32;4.13;;;;;;;10.58;100.00;99723.50;6093842;23;20018;-71
2022/10/01 06:11:42;;;;;;;4.20;4.00;;;;;;;10.52;100.00;99703.81;6151829;23;20020;-70
2022/10/01 06:14:08;;;;;;;4.20;4.00;;;;;;;10.68;100.00;99724.56;6127384;23;20017;-71
2022/10/01 06:16:35;;;;;;;4.07;3.88;;;;;;;11.16;100.00;99793.03;6158984;23;20013;-71
2022/10/01 06:19:01;;;;;;;3.88;3.78;;;;;;;11.00;100.00;99741.69;6131504;23;20061;-71
2022/10/01 06:21:29;;;;;;;4.07;3.88;;;;;;;10.79;100.00;99697.59;6120647;23;20028;-70
2022/10/01 06:23:55;;;;;;;4.30;4.10;;;;;;;11.42;100.00;99803.50;6153662;23;20021;-70
2022/10/01 06:26:22;;;;;;;5.35;5.15;;;;;;;11.14;100.00;99757.31;6128858;23;20668;-71
2022/10/01 06:28:49;;;;;;;4.50;4.30;;;;;;;11.64;100.00;99823.84;6158048;23;20035;-70
2022/10/01 06:31:17;;;;;;;4.55;4.35;;;;;;;11.65;100.00;99830.81;6133150;23;20020;-70
2022/10/01 06:33:43;;;;;;;4.13;3.92;;;;;;;11.67;100.00;99834.16;6155511;23;20021;-71
2022/10/01 06:36:09;;;;;;;4.20;4.00;;;;;;;11.75;100.00;99809.97;6126893;23;20618;-71
2022/10/01 06:38:36;;;;;;;4.30;4.10;;;;;;;11.71;100.00;99811.97;6156357;23;20025;-71
2022/10/01 06:41:03;;;;;;;4.40;4.20;;;;;;;11.83;100.00;99828.66;6094105;23;20033;-71
2022/10/01 06:43:31;;;;;;;4.07;3.88;;;;;;;11.73;100.00;99806.59;6144718;23;20009;-71
2022/10/01 06:46:02;;;;;;;4.25;4.05;;;;;;;11.72;100.00;99807.53;6100375;23;20215;-69
2022/10/01 06:48:30;;;;;;;4.47;4.28;;;;;;;11.37;100.00;99737.31;6138420;23;20006;-69
2022/10/01 06:50:57;;;;;;;4.57;4.38;;;;;;;11.95;100.00;99827.81;6107895;23;20029;-69
2022/10/01 06:53:26;;;;;;;4.40;4.20;;;;;;;12.01;100.00;99826.53;6120040;23;20021;-69
2022/10/01 06:55:53;;;;;;;4.55;4.35;;;;;;;12.04;100.00;99833.34;6110476;23;20014;-69
2022/10/01 06:58:21;;;;;;;4.70;4.50;;;;;;;12.04;100.00;99826.28;6130154;23;20029;-69
2022/10/01 07:00:49;;;;;;;4.20;4.00;;;;;;;12.06;100.00;99827.03;6121363;23;20033;-69
2022/10/01 07:03:20;;;;;;;4.40;4.20;;;;;;;12.09;100.00;99826.81;6130196;23;20079;-70
2022/10/01 07:05:48;;;;;;;4.68;4.47;;;;;;;12.11;100.00;99831.97;6115781;23;20092;-70
2022/10/01 07:08:16;;;;;;;4.50;4.30;;;;;;;12.09;100.00;99850.47;6149107;23;20020;-70
2022/10/01 07:10:44;;;;;;;4.38;4.18;;;;;;;12.08;100.00;99843.53;6113553;23;20113;-69
2022/10/01 07:13:19;;;;;;;4.55;4.35;;;;;;;12.05;100.00;99842.94;6151779;23;20016;-70
2022/10/01 07:15:46;;;;;;;4.47;4.28;;;;;;;11.72;100.00;99784.72;6113048;23;20120;-69
2022/10/01 07:18:12;;;;;;;4.40;4.20;;;;;;;12.14;100.00;99856.22;6140965;23;20054;-70
2022/10/01 07:20:40;;;;;;;4.45;4.22;;;;;;;12.14;100.00;99858.03;6116284;23;20022;-70
2022/10/01 07:23:12;;;;;;;4.47;4.28;;;;;;;12.03;100.00;99843.03;6147846;23;20021;-70
2022/10/01 07:25:40;;;;;;;4.60;4.40;;;;;;;11.60;100.00;99769.00;6113804;23;20029;-69
2022/10/01 07:28:14;;;;;;;4.60;4.40;;;;;;;12.11;100.00;99845.94;6140193;23;20021;-69
2022/10/01 07:30:46;;;;;;;4.30;4.10;;;;;;;12.18;100.00;99855.06;6116682;23;20037;-69
2022/10/01 07:33:16;;;;;;;4.50;4.30;;;;;;;12.21;100.00;99855.78;6139576;23;20068;-70
2022/10/01 07:35:43;;;;;;;4.43;4.22;;;;;;;12.07;100.00;99830.50;6120228;23;20250;-69
2022/10/01 07:38:09;;;;;;;4.40;4.20;;;;;;;11.87;100.00;99776.69;6153912;23;20093;-69
2022/10/01 07:40:35;;;;;;;4.70;4.40;;;;;;;10.80;100.00;99611.81;6124922;23;20021;-69
2022/10/01 07:43:02;;;;;;;4.90;4.70;;;;;;;12.04;100.00;99804.44;6154221;23;20704;-69
2022/10/01 07:45:28;;;;;;;4.57;4.38;;;;;;;11.86;100.00;99764.50;6129050;23;20020;-69
2022/10/01 07:48:00;;;;;;;4.50;4.30;;;;;;;11.90;100.00;99777.31;6149070;23;20021;-70
2022/10/01 07:50:29;;;;;;;4.60;4.40;;;;;;;12.48;100.00;99864.31;6101929;23;20102;-70
2022/10/01 07:52:57;;;;;;;4.60;4.40;;;;;;;12.58;100.00;99859.22;6120343;23;20051;-70
2022/10/01 07:55:25;;;;;;;4.60;4.40;;;;;;;12.24;100.00;99801.16;6115318;23;20025;-70
2022/10/01 07:57:57;;;;;;;4.70;4.50;;;;;;;12.67;100.00;99876.09;6151260;23;20039;-69
2022/10/01 08:00:28;;;;;;;4.57;4.38;;;;;;;12.56;100.00;99864.56;6089850;23;20103;-70
2022/10/01 08:02:55;;;;;;;4.55;4.35;;;;;;;12.43;100.00;99828.75;6142093;23;20047;-69
2022/10/01 08:05:24;;;;;;;4.50;4.30;;;;;;;12.76;100.00;99878.88;6113751;23;20030;-70
2022/10/01 08:07:51;;;;;;;4.93;4.63;;;;;;;12.26;100.00;99814.22;6118689;23;20029;-70
2022/10/01 08:10:19;;;;;;;4.55;4.35;;;;;;;12.80;100.00;99891.84;6149672;23;20086;-70
2022/10/01 08:12:45;;;;;;;5.05;4.57;;;;;;;12.86;100.00;99892.22;6117852;23;20036;-70
2022/10/01 08:15:14;;;;;;;4.90;4.70;;;;;;;12.90;100.00;99904.19;6150254;23;20024;-70
2022/10/01 08:17:41;;;;;;;4.35;4.15;;;;;;;12.69;100.00;99872.41;6111204;23;20041;-69
2022/10/01 08:20:11;;;;;;;4.68;4.47;;;;;;;12.68;100.00;99860.19;6126273;23;20032;-70
2022/10/01 08:22:38;;;;;;;4.60;4.40;;;;;;;13.06;100.00;99892.53;6113174;23;20013;-70
2022/10/01 08:25:07;;;;;;;4.50;4.30;;;;;;;13.20;100.00;99904.66;6141643;23;20021;-70
2022/10/01 08:27:34;;;;;;;4.80;4.60;;;;;;;13.30;100.00;99914.41;6119098;23;20497;-70
2022/10/01 08:30:00;;;;;;;4.75;4.55;;;;;;;12.93;100.00;99834.69;6132290;23;20029;-70
2022/10/01 08:32:27;;;;;;;5.05;4.75;;;;;;;13.25;100.00;99852.44;6114678;23;20160;-71
2022/10/01 08:34:56;;;;;;;4.70;4.50;;;;;;;13.36;100.00;99874.41;6147045;23;20028;-70
2022/10/01 08:37:27;;;;;;;5.00;4.70;;;;;;;13.62;100.00;99918.16;6113679;23;20733;-70
2022/10/01 08:39:55;;;;;;;4.70;4.50;;;;;;;12.93;100.00;99805.72;6124731;23;20033;-70
2022/10/01 08:42:24;;;;;;;6.13;5.15;;;;;;;13.68;100.00;99918.53;6143692;23;20009;-70
2022/10/01 08:44:51;;;;;;;5.03;4.82;;;;;;;13.50;100.00;99883.88;6116991;23;20573;-70
2022/10/01 08:47:32;;;;;;;5.10;4.82;;;;;;;13.68;100.00;99904.50;6146333;23;20028;-70
2022/10/01 08:50:04;;;;;;;4.93;4.72;;;;;;;13.80;100.00;99919.38;6115870;23;20014;-70
2022/10/01 08:52:39;;;;;;;4.95;4.75;;;;;;;13.64;100.00;99918.88;6141620;23;20316;-70
2022/10/01 08:55:09;;;;;;;4.85;4.65;;;;;;;13.72;100.00;99937.59;6115433;23;20017;-70
2022/10/01 08:57:45;;;;;;;4.72;4.53;;;;;;;13.61;100.00;99916.47;6139144;23;20017;-70
2022/10/01 09:00:14;;;;;;;9.93;5.60;;;;;;;12.77;100.00;99766.53;6113037;23;20037;-70
2022/10/01 09:02:42;;;;;;;5.38;5.07;;;;;;;14.07;100.00;99936.63;6133083;23;20145;-70
2022/10/01 09:05:23;;;;;;;4.97;4.78;;;;;;;13.87;100.00;99888.94;6113294;23;20013;-70
2022/10/01 09:07:52;;;;;;;5.03;4.82;;;;;;;14.42;100.00;99935.63;6143384;23;20017;-70
2022/10/01 09:10:28;;;;;;;4.95;4.75;;;;;;;14.63;100.00;99933.88;6115424;23;20083;-70
2022/10/01 09:13:13;;;;;;;5.03;4.72;;;;;;;14.63;100.00;99930.41;6110892;23;20514;-70
2022/10/01 09:16:24;;;;;;;4.90;4.70;;;;;;;14.61;100.00;99953.47;6128480;23;20161;-70
2022/10/01 09:19:15;;;;;;;5.40;5.20;;;;;;;14.44;100.00;99955.66;5932910;24;20522;-69
2022/10/01 09:22:03;;;;;;;5.10;4.80;;;;;;;14.22;100.00;99953.88;6111718;23;20524;-70
2022/10/01 09:24:43;;;;;;;4.70;4.50;;;;;;;14.02;100.00;99955.44;6144132;23;20689;-70
2022/10/01 09:27:16;;;;;;;5.00;4.80;;;;;;;13.84;100.00;99963.00;6093180;23;20067;-70
2022/10/01 09:30:06;;;;;;;4.85;4.65;;;;;;;13.66;100.00;99962.63;6136067;23;20033;-70
2022/10/01 09:32:40;;;;;;;4.65;4.45;;;;;;;13.05;100.00;99883.78;6121280;23;20734;-70
2022/10/01 09:35:19;;;;;;;5.10;4.90;;;;;;;13.38;100.00;99950.72;6156293;23;20017;-70
2022/10/01 09:38:10;;;;;;;5.05;4.75;;;;;;;13.38;100.00;99958.63;6122550;23;20032;-69
2022/10/01 09:40:53;;;;;;;4.88;4.68;;;;;;;13.33;100.00;99958.97;6142048;23;20020;-69
2022/10/01 09:43:22;;;;;;;4.95;4.75;;;;;;;13.38;100.00;99961.25;6112334;23;20384;-70
2022/10/01 09:45:50;;;;;;;5.30;5.00;;;;;;;13.41;100.00;99965.44;6121285;23;20093;-70
2022/10/01 09:48:47;;;;;;;4.93;4.72;;;;;;;13.50;100.00;99973.50;6127129;23;20021;-70
2022/10/01 09:51:37;;;;;;;5.30;5.00;;;;;;;13.62;100.00;99989.34;6149779;23;20490;-70
2022/10/01 09:54:32;;;;;;;4.90;4.70;;;;;;;13.68;100.00;99968.63;6124613;23;20039;-69
2022/10/01 09:57:12;;;;;;;5.18;4.88;;;;;;;14.09;100.00;99982.19;6072418;23;20022;-70
2022/10/01 10:00:01;;;;;;;4.78;4.57;;;;;;;14.02;100.00;99918.53;6114916;23;20033;-70
2022/10/01 10:02:32;;;;;;;5.05;4.85;;;;;;;14.32;100.00;99925.78;6152549;23;20009;-70
2022/10/01 10:05:04;;;;;;;5.03;4.82;;;;;;;14.64;100.00;99969.91;6116323;23;20591;-70
2022/10/01 10:07:33;;;;;;;6.28;5.43;;;;;;;14.89;100.00;99966.13;6143669;23;20036;-70
2022/10/01 10:10:08;;;;;;;5.50;5.20;;;;;;;15.11;100.00;99962.56;6121781;23;20034;-69
2022/10/01 10:12:35;;;;;;;5.95;5.18;;;;;;;15.27;100.00;99977.13;6141715;23;20029;-70
2022/10/01 10:15:15;;;;;;;5.60;5.30;;;;;;;15.81;100.00;99983.19;6117744;23;20021;-69
2022/10/01 10:17:45;;;;;;;5.80;5.25;;;;;;;16.03;100.00;99940.66;6120782;23;20025;-70
2022/10/01 10:20:31;;;;;;;5.07;4.88;;;;;;;16.58;100.00;99979.13;6120065;23;20021;-70
2022/10/01 10:23:06;;;;;;;5.35;5.10;;;;;;;16.28;100.00;99914.72;6118101;23;20086;-70
2022/10/01 10:25:32;;;;;;;5.75;5.35;;;;;;;16.27;100.00;99964.16;6152302;23;20005;-70
2022/10/01 10:28:01;;;;;;;5.85;5.30;;;;;;;15.68;100.00;99918.09;6119275;23;20029;-70
2022/10/01 10:30:28;;;;;;;5.40;5.20;;;;;;;15.73;100.00;99992.59;6119295;23;20014;-70
2022/10/01 10:33:03;;;;;;;6.25;5.75;;;;;;;15.83;100.00;100005.06;6121993;23;20025;-70
2022/10/01 10:35:30;;;;;;;5.93;5.43;;;;;;;15.95;100.00;100001.38;6155001;23;20017;-70
2022/10/01 10:37:58;;;;;;;5.85;5.55;;;;;;;15.93;100.00;99975.03;6114077;23;20090;-70
2022/10/01 10:40:39;;;;;;;5.25;5.03;;;;;;;16.42;100.00;99996.41;6148882;23;20014;-70
2022/10/01 10:43:21;;;;;;;5.53;5.22;;;;;;;16.33;100.00;99968.06;6091545;23;20491;-71
2022/10/01 10:45:54;;;;;;;5.70;5.40;;;;;;;16.28;100.00;99960.53;6126287;23;20037;-70
2022/10/01 10:48:27;;;;;;;6.00;5.60;;;;;;;16.50;100.00;99974.53;6111715;23;20093;-69
2022/10/01 10:51:00;;;;;;;5.50;5.20;;;;;;;16.37;100.00;99924.47;6117550;23;20520;-70
2022/10/01 10:53:30;;;;;;;5.80;5.50;;;;;;;17.09;100.00;100001.97;6136176;23;20033;-70
2022/10/01 10:55:59;;;;;;;6.22;5.70;;;;;;;17.21;100.00;100019.41;6120760;23;20066;-70
2022/10/01 10:58:29;;;;;;;8.25;7.85;;;;;;;17.43;100.00;100036.03;6133898;23;20021;-69
2022/10/01 11:01:10;;;;;;;5.75;5.45;;;;;;;17.36;100.00;100033.13;6124996;23;20020;-69
2022/10/01 11:03:43;;;;;;;6.82;6.30;;;;;;;16.88;100.00;99957.91;6143246;23;20670;-69
2022/10/01 11:06:13;;;;;;;6.15;5.50;;;;;;;17.40;100.00;99989.41;6117221;23;20082;-70
2022/10/01 11:08:41;;;;;;;5.78;5.47;;;;;;;17.59;100.00;100001.78;6146718;23;20807;-70
2022/10/01 11:11:32;;;;;;;5.72;5.43;;;;;;;17.72;100.00;100038.63;6122765;23;20025;-69
2022/10/01 11:14:27;;;;;;;6.03;5.63;;;;;;;16.53;100.00;99842.66;6150515;23;20032;-70
2022/10/01 11:17:06;;;;;;;5.50;5.20;;;;;;;17.66;100.00;100033.91;6093427;23;20553;-70
2022/10/01 11:19:41;;;;;;;5.53;5.13;;;;;;;17.52;100.00;100033.38;6149922;23;20013;-69
2022/10/01 11:22:26;;;;;;;10.52;5.47;;;;;;;17.64;100.00;100038.50;6112587;23;20071;-69
2022/10/01 11:25:02;;;;;;;6.30;5.70;;;;;;;17.69;100.00;100044.25;6151685;23;20510;-70
2022/10/01 11:28:04;;;;;;;5.97;5.68;;;;;;;17.47;100.00;100043.56;6111638;23;20796;-69
2022/10/01 11:30:34;;;;;;;5.80;5.50;;;;;;;17.18;100.00;100050.66;6111618;23;20026;-69
2022/10/01 11:33:02;;;;;;;6.18;5.60;;;;;;;17.11;100.00;100059.19;6124347;23;20086;-70
2022/10/01 11:35:36;;;;;;;5.90;5.60;;;;;;;17.15;100.00;100063.22;6114910;23;20039;-70
2022/10/01 11:38:17;;;;;;;6.55;5.95;;;;;;;16.93;100.00;100015.78;6123816;23;20458;-69
2022/10/01 11:40:50;;;;;;;6.13;5.60;;;;;;;16.94;100.00;100030.72;6134747;23;20037;-69
2022/10/01 11:43:25;;;;;;;;;;;;;;;17.26;100.00;100072.03;6089289;23;20029;-69